sensor_id;sensor_type;location;lat;lon;timestamp;P1;durP1;ratioP1;P2;durP2;ratioP2
26391;SDS011;14572;43.120;1.178;2023-04-01T06:11:04;13.30;;;1.83;;
26391;SDS011;14572;43.120;1.178;2023-04-01T06:13:44;7.78;;;1.70;;
26391;SDS011;14572;43.120;1.178;2023-04-01T06:16:21;9.98;;;1.73;;
26391;SDS011;14572;43.120;1.178;2023-04-01T06:18:58;10.23;;;1.88;;
26391;SDS011;14572;43.120;1.178;2023-04-01T06:24:38;13.98;;;2.42;;
26391;SDS011;14572;43.120;1.178;2023-04-01T06:27:16;15.07;;;2.10;;
26391;SDS011;14572;43.120;1.178;2023-04-01T06:29:53;15.55;;;1.92;;
26391;SDS011;14572;43.120;1.178;2023-04-01T06:32:39;12.57;;;2.30;;
26391;SDS011;14572;43.120;1.178;2023-04-01T06:35:17;16.75;;;2.72;;
26391;SDS011;14572;43.120;1.178;2023-04-01T06:38:05;14.43;;;2.33;;
26391;SDS011;14572;43.120;1.178;2023-04-01T06:40:44;10.15;;;2.17;;
26391;SDS011;14572;43.120;1.178;2023-04-01T06:43:21;16.92;;;2.42;;
26391;SDS011;14572;43.120;1.178;2023-04-01T06:45:52;19.77;;;2.25;;
26391;SDS011;14572;43.120;1.178;2023-04-01T06:48:36;17.60;;;2.50;;
26391;SDS011;14572;43.120;1.178;2023-04-01T06:51:13;15.35;;;2.28;;
26391;SDS011;14572;43.120;1.178;2023-04-01T06:53:49;15.75;;;2.55;;
26391;SDS011;14572;43.120;1.178;2023-04-01T06:56:21;17.42;;;2.22;;
26391;SDS011;14572;43.120;1.178;2023-04-01T06:58:53;15.25;;;2.78;;
26391;SDS011;14572;43.120;1.178;2023-04-01T07:01:22;9.43;;;1.65;;
26391;SDS011;14572;43.120;1.178;2023-04-01T07:03:53;15.10;;;2.10;;
26391;SDS011;14572;43.120;1.178;2023-04-01T07:06:24;17.33;;;1.85;;
26391;SDS011;14572;43.120;1.178;2023-04-01T07:08:53;20.88;;;2.60;;
26391;SDS011;14572;43.120;1.178;2023-04-01T07:11:24;15.65;;;2.35;;
26391;SDS011;14572;43.120;1.178;2023-04-01T07:13:55;17.13;;;2.05;;
26391;SDS011;14572;43.120;1.178;2023-04-01T07:16:27;12.73;;;1.80;;
26391;SDS011;14572;43.120;1.178;2023-04-01T07:18:58;17.50;;;1.95;;
26391;SDS011;14572;43.120;1.178;2023-04-01T07:24:03;12.88;;;2.30;;
26391;SDS011;14572;43.120;1.178;2023-04-01T07:26:32;14.48;;;1.90;;
26391;SDS011;14572;43.120;1.178;2023-04-01T07:29:01;25.17;;;2.30;;
26391;SDS011;14572;43.120;1.178;2023-04-01T07:31:32;20.23;;;2.63;;
26391;SDS011;14572;43.120;1.178;2023-04-01T07:34:09;15.98;;;2.38;;
26391;SDS011;14572;43.120;1.178;2023-04-01T07:36:39;12.90;;;2.08;;
26391;SDS011;14572;43.120;1.178;2023-04-01T07:39:12;18.17;;;2.20;;
26391;SDS011;14572;43.120;1.178;2023-04-01T07:41:49;10.98;;;1.98;;
26391;SDS011;14572;43.120;1.178;2023-04-01T07:44:22;16.25;;;2.03;;
26391;SDS011;14572;43.120;1.178;2023-04-01T07:46:55;17.52;;;2.53;;
26391;SDS011;14572;43.120;1.178;2023-04-01T07:49:28;13.02;;;1.95;;
26391;SDS011;14572;43.120;1.178;2023-04-01T07:51:59;16.75;;;2.10;;
26391;SDS011;14572;43.120;1.178;2023-04-01T07:54:30;8.73;;;2.00;;
26391;SDS011;14572;43.120;1.178;2023-04-01T07:57:01;12.30;;;1.60;;
26391;SDS011;14572;43.120;1.178;2023-04-01T07:59:34;12.35;;;1.80;;
26391;SDS011;14572;43.120;1.178;2023-04-01T08:02:10;11.68;;;1.92;;
26391;SDS011;14572;43.120;1.178;2023-04-01T08:04:53;18.63;;;2.00;;
26391;SDS011;14572;43.120;1.178;2023-04-01T08:07:25;11.35;;;1.88;;
26391;SDS011;14572;43.120;1.178;2023-04-01T08:09:55;16.50;;;2.08;;
26391;SDS011;14572;43.120;1.178;2023-04-01T08:12:28;13.38;;;1.70;;
26391;SDS011;14572;43.120;1.178;2023-04-01T08:15:05;12.40;;;2.35;;
26391;SDS011;14572;43.120;1.178;2023-04-01T08:17:39;13.35;;;1.63;;
26391;SDS011;14572;43.120;1.178;2023-04-01T08:20:18;14.00;;;1.80;;
26391;SDS011;14572;43.120;1.178;2023-04-01T08:22:53;10.48;;;1.63;;
26391;SDS011;14572;43.120;1.178;2023-04-01T08:25:25;11.00;;;1.92;;
26391;SDS011;14572;43.120;1.178;2023-04-01T08:27:54;16.48;;;2.28;;
26391;SDS011;14572;43.120;1.178;2023-04-01T08:30:25;13.38;;;2.30;;
26391;SDS011;14572;43.120;1.178;2023-04-01T08:32:55;14.48;;;1.60;;
26391;SDS011;14572;43.120;1.178;2023-04-01T08:35:27;11.57;;;1.77;;
26391;SDS011;14572;43.120;1.178;2023-04-01T08:37:59;11.13;;;2.20;;
26391;SDS011;14572;43.120;1.178;2023-04-01T08:43:31;14.45;;;1.80;;
26391;SDS011;14572;43.120;1.178;2023-04-01T08:52:29;10.70;;;1.75;;
26391;SDS011;14572;43.120;1.178;2023-04-01T08:58:11;7.93;;;1.30;;
26391;SDS011;14572;43.120;1.178;2023-04-01T09:00:59;12.32;;;1.58;;
26391;SDS011;14572;43.120;1.178;2023-04-01T09:03:44;8.95;;;1.63;;
26391;SDS011;14572;43.120;1.178;2023-04-01T09:06:33;11.52;;;1.60;;
26391;SDS011;14572;43.120;1.178;2023-04-01T09:09:17;9.73;;;1.88;;
26391;SDS011;14572;43.120;1.178;2023-04-01T09:11:58;10.25;;;1.80;;
26391;SDS011;14572;43.120;1.178;2023-04-01T09:17:52;9.95;;;1.52;;
26391;SDS011;14572;43.120;1.178;2023-04-01T09:20:45;12.75;;;1.50;;
26391;SDS011;14572;43.120;1.178;2023-04-01T09:26:16;12.55;;;2.15;;
26391;SDS011;14572;43.120;1.178;2023-04-01T09:28:50;12.05;;;1.63;;
26391;SDS011;14572;43.120;1.178;2023-04-01T09:31:25;10.18;;;1.60;;
26391;SDS011;14572;43.120;1.178;2023-04-01T09:34:12;9.15;;;1.40;;
26391;SDS011;14572;43.120;1.178;2023-04-01T09:37:04;12.55;;;1.58;;
26391;SDS011;14572;43.120;1.178;2023-04-01T09:39:47;13.77;;;1.60;;
26391;SDS011;14572;43.120;1.178;2023-04-01T09:42:42;9.85;;;1.67;;
26391;SDS011;14572;43.120;1.178;2023-04-01T09:45:16;9.00;;;1.40;;
26391;SDS011;14572;43.120;1.178;2023-04-01T09:47:51;7.57;;;1.15;;
26391;SDS011;14572;43.120;1.178;2023-04-01T09:50:35;9.20;;;1.38;;
26391;SDS011;14572;43.120;1.178;2023-04-01T09:53:12;7.40;;;1.23;;
26391;SDS011;14572;43.120;1.178;2023-04-01T09:58:56;4.40;;;0.60;;
26391;SDS011;14572;43.120;1.178;2023-04-01T10:01:44;7.45;;;0.82;;
26391;SDS011;14572;43.120;1.178;2023-04-01T10:05:04;7.97;;;1.27;;
26391;SDS011;14572;43.120;1.178;2023-04-01T10:11:09;6.43;;;1.30;;
26391;SDS011;14572;43.120;1.178;2023-04-01T10:14:09;7.50;;;0.93;;
26391;SDS011;14572;43.120;1.178;2023-04-01T10:23:07;3.88;;;0.90;;
26391;SDS011;14572;43.120;1.178;2023-04-01T10:31:51;14.25;;;6.40;;
26391;SDS011;14572;43.120;1.178;2023-04-01T10:34:42;5.88;;;2.25;;
26391;SDS011;14572;43.120;1.178;2023-04-01T10:40:36;5.72;;;0.80;;
26391;SDS011;14572;43.120;1.178;2023-04-01T10:52:46;7.25;;;1.42;;
26391;SDS011;14572;43.120;1.178;2023-04-01T10:55:46;7.57;;;1.80;;
26391;SDS011;14572;43.120;1.178;2023-04-01T11:14:41;8.70;;;1.00;;
26391;SDS011;14572;43.120;1.178;2023-04-01T11:17:53;9.85;;;2.08;;
26391;SDS011;14572;43.120;1.178;2023-04-01T11:20:45;12.48;;;6.40;;
26391;SDS011;14572;43.120;1.178;2023-04-01T11:23:41;7.85;;;2.47;;
26391;SDS011;14572;43.120;1.178;2023-04-01T11:26:15;5.10;;;1.88;;
26391;SDS011;14572;43.120;1.178;2023-04-01T11:31:55;6.55;;;1.25;;
26391;SDS011;14572;43.120;1.178;2023-04-01T11:37:20;17.00;;;11.15;;
26391;SDS011;14572;43.120;1.178;2023-04-01T11:39:59;9.20;;;2.50;;
26391;SDS011;14572;43.120;1.178;2023-04-01T11:42:34;9.77;;;5.75;;
26391;SDS011;14572;43.120;1.178;2023-04-01T11:45:18;8.43;;;3.13;;
26391;SDS011;14572;43.120;1.178;2023-04-01T11:47:56;10.15;;;2.90;;
26391;SDS011;14572;43.120;1.178;2023-04-01T11:50:32;6.90;;;1.33;;
26391;SDS011;14572;43.120;1.178;2023-04-01T11:56:09;5.22;;;1.67;;
26391;SDS011;14572;43.120;1.178;2023-04-01T11:58:53;8.25;;;2.00;;
26391;SDS011;14572;43.120;1.178;2023-04-01T12:01:36;8.68;;;1.70;;
26391;SDS011;14572;43.120;1.178;2023-04-01T12:04:22;4.55;;;0.82;;
26391;SDS011;14572;43.120;1.178;2023-04-01T12:06:56;5.78;;;1.10;;
26391;SDS011;14572;43.120;1.178;2023-04-01T12:09:29;3.17;;;0.70;;
26391;SDS011;14572;43.120;1.178;2023-04-01T12:12:08;5.80;;;1.20;;
26391;SDS011;14572;43.120;1.178;2023-04-01T12:14:39;5.38;;;1.65;;
26391;SDS011;14572;43.120;1.178;2023-04-01T12:17:13;9.07;;;1.35;;
26391;SDS011;14572;43.120;1.178;2023-04-01T12:19:53;5.78;;;1.00;;
26391;SDS011;14572;43.120;1.178;2023-04-01T12:22:34;11.27;;;2.53;;
26391;SDS011;14572;43.120;1.178;2023-04-01T12:25:19;5.47;;;1.08;;
26391;SDS011;14572;43.120;1.178;2023-04-01T12:27:55;10.25;;;4.65;;
26391;SDS011;14572;43.120;1.178;2023-04-01T12:30:38;4.30;;;1.60;;
26391;SDS011;14572;43.120;1.178;2023-04-01T12:33:26;10.90;;;3.58;;
26391;SDS011;14572;43.120;1.178;2023-04-01T12:36:01;6.47;;;1.35;;
26391;SDS011;14572;43.120;1.178;2023-04-01T12:38:36;6.00;;;3.90;;
26391;SDS011;14572;43.120;1.178;2023-04-01T12:41:13;2.15;;;0.80;;
26391;SDS011;14572;43.120;1.178;2023-04-01T12:49:50;8.50;;;5.45;;
26391;SDS011;14572;43.120;1.178;2023-04-01T12:52:36;9.50;;;6.38;;
26391;SDS011;14572;43.120;1.178;2023-04-01T12:55:19;2.47;;;0.80;;
26391;SDS011;14572;43.120;1.178;2023-04-01T13:01:27;1.85;;;0.90;;
26391;SDS011;14572;43.120;1.178;2023-04-01T13:04:25;2.47;;;0.60;;
26391;SDS011;14572;43.120;1.178;2023-04-01T13:07:22;4.50;;;1.20;;
26391;SDS011;14572;43.120;1.178;2023-04-01T13:09:56;3.78;;;1.55;;
26391;SDS011;14572;43.120;1.178;2023-04-01T13:15:32;4.65;;;1.83;;
26391;SDS011;14572;43.120;1.178;2023-04-01T13:18:10;4.55;;;1.52;;
26391;SDS011;14572;43.120;1.178;2023-04-01T13:20:44;2.90;;;0.60;;
26391;SDS011;14572;43.120;1.178;2023-04-01T13:23:23;4.60;;;0.40;;
26391;SDS011;14572;43.120;1.178;2023-04-01T13:25:58;26.98;;;1.48;;
26391;SDS011;14572;43.120;1.178;2023-04-01T13:28:32;5.70;;;0.52;;
26391;SDS011;14572;43.120;1.178;2023-04-01T13:31:04;7.15;;;0.60;;
26391;SDS011;14572;43.120;1.178;2023-04-01T13:33:36;5.95;;;0.50;;
26391;SDS011;14572;43.120;1.178;2023-04-01T13:36:19;2.33;;;0.40;;
26391;SDS011;14572;43.120;1.178;2023-04-01T13:41:47;2.90;;;0.60;;
26391;SDS011;14572;43.120;1.178;2023-04-01T13:44:28;5.53;;;1.10;;
26391;SDS011;14572;43.120;1.178;2023-04-01T13:47:03;8.18;;;0.30;;
26391;SDS011;14572;43.120;1.178;2023-04-01T13:49:43;3.40;;;0.40;;
26391;SDS011;14572;43.120;1.178;2023-04-01T13:52:22;3.83;;;0.40;;
26391;SDS011;14572;43.120;1.178;2023-04-01T13:55:16;8.70;;;1.35;;
26391;SDS011;14572;43.120;1.178;2023-04-01T14:01:00;7.03;;;0.70;;
26391;SDS011;14572;43.120;1.178;2023-04-01T14:06:28;2.65;;;0.40;;
26391;SDS011;14572;43.120;1.178;2023-04-01T14:11:53;4.00;;;0.45;;
26391;SDS011;14572;43.120;1.178;2023-04-01T14:14:29;2.55;;;0.30;;
26391;SDS011;14572;43.120;1.178;2023-04-01T14:17:15;2.88;;;0.30;;
26391;SDS011;14572;43.120;1.178;2023-04-01T14:26:07;4.63;;;0.38;;
26391;SDS011;14572;43.120;1.178;2023-04-01T14:28:41;3.30;;;0.38;;
26391;SDS011;14572;43.120;1.178;2023-04-01T14:31:19;1.88;;;0.40;;
26391;SDS011;14572;43.120;1.178;2023-04-01T14:33:57;2.35;;;0.30;;
26391;SDS011;14572;43.120;1.178;2023-04-01T14:36:37;3.55;;;0.65;;
26391;SDS011;14572;43.120;1.178;2023-04-01T14:39:29;7.70;;;0.90;;
26391;SDS011;14572;43.120;1.178;2023-04-01T14:42:11;5.50;;;0.60;;
26391;SDS011;14572;43.120;1.178;2023-04-01T14:44:57;4.68;;;0.45;;
26391;SDS011;14572;43.120;1.178;2023-04-01T14:50:16;3.70;;;0.50;;
26391;SDS011;14572;43.120;1.178;2023-04-01T14:52:46;1.98;;;0.60;;
26391;SDS011;14572;43.120;1.178;2023-04-01T14:55:23;1.63;;;0.38;;
26391;SDS011;14572;43.120;1.178;2023-04-01T14:57:58;2.67;;;0.50;;
26391;SDS011;14572;43.120;1.178;2023-04-01T15:00:27;6.28;;;0.57;;
26391;SDS011;14572;43.120;1.178;2023-04-01T15:03:12;5.10;;;0.65;;
26391;SDS011;14572;43.120;1.178;2023-04-01T15:05:45;3.47;;;0.52;;
26391;SDS011;14572;43.120;1.178;2023-04-01T15:08:17;6.00;;;0.65;;
26391;SDS011;14572;43.120;1.178;2023-04-01T15:10:56;5.60;;;0.73;;
26391;SDS011;14572;43.120;1.178;2023-04-01T15:13:32;3.00;;;0.50;;
26391;SDS011;14572;43.120;1.178;2023-04-01T15:16:07;6.43;;;0.60;;
26391;SDS011;14572;43.120;1.178;2023-04-01T15:18:42;4.22;;;0.70;;
26391;SDS011;14572;43.120;1.178;2023-04-01T15:21:16;4.88;;;0.57;;
26391;SDS011;14572;43.120;1.178;2023-04-01T15:23:50;6.72;;;0.75;;
26391;SDS011;14572;43.120;1.178;2023-04-01T15:26:29;5.70;;;1.13;;
26391;SDS011;14572;43.120;1.178;2023-04-01T15:29:06;3.97;;;0.60;;
26391;SDS011;14572;43.120;1.178;2023-04-01T15:31:44;9.00;;;0.70;;
26391;SDS011;14572;43.120;1.178;2023-04-01T15:34:21;4.07;;;0.80;;
26391;SDS011;14572;43.120;1.178;2023-04-01T15:36:53;2.78;;;0.50;;
26391;SDS011;14572;43.120;1.178;2023-04-01T15:39:24;3.50;;;0.50;;
26391;SDS011;14572;43.120;1.178;2023-04-01T15:42:18;6.50;;;0.90;;
26391;SDS011;14572;43.120;1.178;2023-04-01T15:45:14;3.60;;;0.70;;
26391;SDS011;14572;43.120;1.178;2023-04-01T15:47:45;1.63;;;0.40;;
26391;SDS011;14572;43.120;1.178;2023-04-01T15:53:29;2.88;;;0.52;;
26391;SDS011;14572;43.120;1.178;2023-04-01T15:59:12;6.10;;;0.60;;
26391;SDS011;14572;43.120;1.178;2023-04-01T16:01:46;3.17;;;0.65;;
26391;SDS011;14572;43.120;1.178;2023-04-01T16:04:28;2.42;;;0.55;;
26391;SDS011;14572;43.120;1.178;2023-04-01T16:07:08;4.90;;;0.60;;
26391;SDS011;14572;43.120;1.178;2023-04-01T16:09:43;3.00;;;0.38;;
26391;SDS011;14572;43.120;1.178;2023-04-01T16:12:35;5.00;;;0.50;;
26391;SDS011;14572;43.120;1.178;2023-04-01T16:15:13;3.17;;;0.40;;
26391;SDS011;14572;43.120;1.178;2023-04-01T16:17:58;3.58;;;0.40;;
26391;SDS011;14572;43.120;1.178;2023-04-01T16:20:42;2.42;;;0.50;;
26391;SDS011;14572;43.120;1.178;2023-04-01T16:23:12;3.30;;;0.60;;
26391;SDS011;14572;43.120;1.178;2023-04-01T16:25:46;3.35;;;0.70;;
26391;SDS011;14572;43.120;1.178;2023-04-01T16:28:19;2.08;;;0.47;;
26391;SDS011;14572;43.120;1.178;2023-04-01T16:30:55;4.57;;;0.52;;
26391;SDS011;14572;43.120;1.178;2023-04-01T16:33:27;3.20;;;0.40;;
26391;SDS011;14572;43.120;1.178;2023-04-01T16:36:05;3.25;;;0.40;;
26391;SDS011;14572;43.120;1.178;2023-04-01T16:38:36;4.40;;;0.50;;
26391;SDS011;14572;43.120;1.178;2023-04-01T16:41:14;2.85;;;0.40;;
26391;SDS011;14572;43.120;1.178;2023-04-01T16:43:44;3.33;;;0.50;;
26391;SDS011;14572;43.120;1.178;2023-04-01T16:49:04;4.82;;;0.73;;
26391;SDS011;14572;43.120;1.178;2023-04-01T16:51:45;3.72;;;0.50;;
26391;SDS011;14572;43.120;1.178;2023-04-01T16:54:16;2.58;;;0.45;;
26391;SDS011;14572;43.120;1.178;2023-04-01T16:56:53;3.03;;;0.43;;
26391;SDS011;14572;43.120;1.178;2023-04-01T16:59:22;5.07;;;0.50;;
26391;SDS011;14572;43.120;1.178;2023-04-01T17:01:54;5.50;;;0.57;;
26391;SDS011;14572;43.120;1.178;2023-04-01T17:04:26;1.42;;;0.40;;
26391;SDS011;14572;43.120;1.178;2023-04-01T17:07:00;2.67;;;0.88;;
26391;SDS011;14572;43.120;1.178;2023-04-01T17:09:37;1.73;;;0.57;;
26391;SDS011;14572;43.120;1.178;2023-04-01T17:12:13;1.88;;;0.40;;
26391;SDS011;14572;43.120;1.178;2023-04-01T17:14:45;1.30;;;0.47;;
26391;SDS011;14572;43.120;1.178;2023-04-01T17:17:21;2.00;;;0.40;;
26391;SDS011;14572;43.120;1.178;2023-04-01T17:19:55;0.50;;;0.40;;
26391;SDS011;14572;43.120;1.178;2023-04-01T17:22:39;4.07;;;0.50;;
26391;SDS011;14572;43.120;1.178;2023-04-01T17:25:20;2.88;;;0.50;;
26391;SDS011;14572;43.120;1.178;2023-04-01T17:27:57;5.82;;;0.63;;
26391;SDS011;14572;43.120;1.178;2023-04-01T17:30:28;1.13;;;0.30;;
26391;SDS011;14572;43.120;1.178;2023-04-01T17:35:48;3.13;;;0.50;;
26391;SDS011;14572;43.120;1.178;2023-04-01T17:38:23;2.05;;;0.50;;
26391;SDS011;14572;43.120;1.178;2023-04-01T17:41:04;2.10;;;0.55;;
26391;SDS011;14572;43.120;1.178;2023-04-01T17:43:37;1.70;;;0.60;;
26391;SDS011;14572;43.120;1.178;2023-04-01T17:46:10;0.95;;;0.40;;
26391;SDS011;14572;43.120;1.178;2023-04-01T17:48:55;7.20;;;0.45;;
26391;SDS011;14572;43.120;1.178;2023-04-01T17:51:29;1.27;;;0.30;;
26391;SDS011;14572;43.120;1.178;2023-04-01T17:54:04;0.80;;;0.40;;
26391;SDS011;14572;43.120;1.178;2023-04-01T17:56:44;2.45;;;0.55;;
26391;SDS011;14572;43.120;1.178;2023-04-01T17:59:17;1.33;;;0.30;;
26391;SDS011;14572;43.120;1.178;2023-04-01T18:01:53;1.15;;;0.32;;
26391;SDS011;14572;43.120;1.178;2023-04-01T18:04:28;0.82;;;0.40;;
26391;SDS011;14572;43.120;1.178;2023-04-01T18:07:12;0.47;;;0.43;;
26391;SDS011;14572;43.120;1.178;2023-04-01T18:09:49;4.30;;;1.42;;
26391;SDS011;14572;43.120;1.178;2023-04-01T18:12:25;3.50;;;0.60;;
26391;SDS011;14572;43.120;1.178;2023-04-01T18:15:19;1.25;;;0.20;;
26391;SDS011;14572;43.120;1.178;2023-04-01T18:18:12;1.10;;;0.30;;
26391;SDS011;14572;43.120;1.178;2023-04-01T18:20:53;0.50;;;0.30;;
26391;SDS011;14572;43.120;1.178;2023-04-01T18:23:26;3.35;;;0.40;;
26391;SDS011;14572;43.120;1.178;2023-04-01T18:26:03;3.63;;;0.40;;
26391;SDS011;14572;43.120;1.178;2023-04-01T18:28:32;3.03;;;0.40;;
26391;SDS011;14572;43.120;1.178;2023-04-01T18:31:07;1.83;;;0.30;;
26391;SDS011;14572;43.120;1.178;2023-04-01T18:33:42;3.42;;;0.40;;
26391;SDS011;14572;43.120;1.178;2023-04-01T18:36:18;2.67;;;0.40;;
26391;SDS011;14572;43.120;1.178;2023-04-01T18:38:49;2.15;;;0.45;;
26391;SDS011;14572;43.120;1.178;2023-04-01T18:41:30;2.83;;;0.55;;
26391;SDS011;14572;43.120;1.178;2023-04-01T18:44:03;0.93;;;0.38;;
26391;SDS011;14572;43.120;1.178;2023-04-01T18:46:38;2.10;;;0.43;;
26391;SDS011;14572;43.120;1.178;2023-04-01T18:49:10;2.85;;;0.40;;
26391;SDS011;14572;43.120;1.178;2023-04-01T18:51:45;0.90;;;0.40;;
26391;SDS011;14572;43.120;1.178;2023-04-01T18:54:17;2.85;;;0.40;;
26391;SDS011;14572;43.120;1.178;2023-04-01T18:56:50;2.10;;;0.40;;
26391;SDS011;14572;43.120;1.178;2023-04-01T18:59:18;1.50;;;0.32;;
26391;SDS011;14572;43.120;1.178;2023-04-01T19:01:51;0.80;;;0.20;;
26391;SDS011;14572;43.120;1.178;2023-04-01T19:04:28;2.58;;;0.40;;
26391;SDS011;14572;43.120;1.178;2023-04-01T19:07:01;2.72;;;0.30;;
26391;SDS011;14572;43.120;1.178;2023-04-01T19:09:30;3.22;;;0.43;;
26391;SDS011;14572;43.120;1.178;2023-04-01T19:15:25;3.00;;;0.45;;
26391;SDS011;14572;43.120;1.178;2023-04-01T19:18:02;5.90;;;0.50;;
26391;SDS011;14572;43.120;1.178;2023-04-01T19:20:41;3.97;;;0.50;;
26391;SDS011;14572;43.120;1.178;2023-04-01T19:23:25;5.22;;;0.65;;
26391;SDS011;14572;43.120;1.178;2023-04-01T19:26:09;4.35;;;0.55;;
26391;SDS011;14572;43.120;1.178;2023-04-01T19:28:40;5.07;;;0.50;;
26391;SDS011;14572;43.120;1.178;2023-04-01T19:31:24;5.47;;;0.63;;
26391;SDS011;14572;43.120;1.178;2023-04-01T19:34:05;1.30;;;0.40;;
26391;SDS011;14572;43.120;1.178;2023-04-01T19:36:39;3.15;;;0.40;;
26391;SDS011;14572;43.120;1.178;2023-04-01T19:39:17;3.95;;;0.38;;
26391;SDS011;14572;43.120;1.178;2023-04-01T19:41:54;2.10;;;0.40;;
26391;SDS011;14572;43.120;1.178;2023-04-01T19:44:29;1.98;;;0.50;;
26391;SDS011;14572;43.120;1.178;2023-04-01T19:47:02;2.40;;;0.35;;
26391;SDS011;14572;43.120;1.178;2023-04-01T19:49:38;3.67;;;0.50;;
26391;SDS011;14572;43.120;1.178;2023-04-01T19:52:09;1.27;;;0.40;;
26391;SDS011;14572;43.120;1.178;2023-04-01T19:54:45;2.30;;;0.70;;
26391;SDS011;14572;43.120;1.178;2023-04-01T19:57:17;2.72;;;0.50;;
26391;SDS011;14572;43.120;1.178;2023-04-01T19:59:52;1.17;;;0.32;;
26391;SDS011;14572;43.120;1.178;2023-04-01T20:08:15;3.83;;;0.50;;
26391;SDS011;14572;43.120;1.178;2023-04-01T20:10:51;1.13;;;0.30;;
26391;SDS011;14572;43.120;1.178;2023-04-01T20:13:25;3.78;;;0.60;;
26391;SDS011;14572;43.120;1.178;2023-04-01T20:15:58;0.52;;;0.38;;
26391;SDS011;14572;43.120;1.178;2023-04-01T20:18:33;2.22;;;0.57;;
26391;SDS011;14572;43.120;1.178;2023-04-01T20:21:05;2.30;;;0.50;;
26391;SDS011;14572;43.120;1.178;2023-04-01T20:23:39;3.25;;;0.35;;
26391;SDS011;14572;43.120;1.178;2023-04-01T20:26:12;1.48;;;0.17;;
26391;SDS011;14572;43.120;1.178;2023-04-01T20:28:43;1.70;;;0.40;;
26391;SDS011;14572;43.120;1.178;2023-04-01T20:31:23;2.45;;;0.52;;
26391;SDS011;14572;43.120;1.178;2023-04-01T20:33:57;4.80;;;1.27;;
26391;SDS011;14572;43.120;1.178;2023-04-01T20:36:43;2.83;;;0.50;;
26391;SDS011;14572;43.120;1.178;2023-04-01T20:39:25;2.95;;;0.60;;
26391;SDS011;14572;43.120;1.178;2023-04-01T20:42:23;2.63;;;0.40;;
26391;SDS011;14572;43.120;1.178;2023-04-01T20:44:56;1.77;;;0.40;;
26391;SDS011;14572;43.120;1.178;2023-04-01T20:47:35;2.38;;;0.50;;
26391;SDS011;14572;43.120;1.178;2023-04-01T20:50:11;3.35;;;0.65;;
26391;SDS011;14572;43.120;1.178;2023-04-01T20:52:47;6.07;;;0.73;;
26391;SDS011;14572;43.120;1.178;2023-04-01T20:55:30;4.22;;;0.85;;
26391;SDS011;14572;43.120;1.178;2023-04-01T20:58:18;2.60;;;0.50;;
26391;SDS011;14572;43.120;1.178;2023-04-01T21:00:52;1.35;;;0.47;;
26391;SDS011;14572;43.120;1.178;2023-04-01T21:03:31;3.30;;;0.70;;
26391;SDS011;14572;43.120;1.178;2023-04-01T21:08:59;10.55;;;0.88;;
26391;SDS011;14572;43.120;1.178;2023-04-01T21:11:35;5.18;;;1.20;;
26391;SDS011;14572;43.120;1.178;2023-04-01T21:14:24;5.75;;;0.80;;
26391;SDS011;14572;43.120;1.178;2023-04-01T21:17:00;4.07;;;1.00;;
26391;SDS011;14572;43.120;1.178;2023-04-01T21:19:36;5.18;;;0.80;;
26391;SDS011;14572;43.120;1.178;2023-04-01T21:22:18;10.38;;;1.00;;
